K9MN

Rochester

Rochester, Minnesota, USA
METAR K9MN 222135Z AUTO 06004KT 10SM CLR 16/00 A3028 RMK AO1 T01580000
Observed Flight Rules
Apr-22 @ 21:35 UTC (19 minutes ago) Visual Flight Rules
Wind Visibility Clouds
60° at 4 knots 10 miles
  • Clear skies
Temperatures Readings
Current 16°C / 61°F
Dewpoint 0°C / 32°F
Humidity 34%
Altimeter 30.28" Hg
Pressure 1025 hPa
Elevation 355
METAR K9MN 222135Z AUTO 06004KT 10SM CLR 16/00 A3028 RMK AO1 T01580000
Observed Flight Rules
Apr-22 @ 21:35 UTC
(19 minutes ago)
VFR
Wind Visibility
60° at 4 knots 10 miles
Clouds
  • Clear skies
Temperature Dewpoint
16°C / 61°F 0°C / 32°F
Humidity Altimeter Pressure
34% 30.28" Hg 1025 hPa